sensor_id;sensor_type;location;lat;lon;timestamp;pressure;altitude;pressure_sealevel;temperature;humidity
23867;BME280;12114;53.404;-1.502;2023-11-19T00:01:33;99407.06;;;12.26;100.00
23867;BME280;12114;53.404;-1.502;2023-11-19T00:04:17;99420.19;;;12.25;100.00
23867;BME280;12114;53.404;-1.502;2023-11-19T00:07:01;99421.78;;;12.26;100.00
23867;BME280;12114;53.404;-1.502;2023-11-19T00:09:48;99424.19;;;12.28;100.00
23867;BME280;12114;53.404;-1.502;2023-11-19T00:12:32;99420.63;;;12.27;100.00
23867;BME280;12114;53.404;-1.502;2023-11-19T00:15:17;99422.59;;;12.30;100.00
23867;BME280;12114;53.404;-1.502;2023-11-19T00:18:04;99420.59;;;12.24;100.00
23867;BME280;12114;53.404;-1.502;2023-11-19T00:20:48;99418.22;;;12.26;100.00
23867;BME280;12114;53.404;-1.502;2023-11-19T00:23:32;99412.66;;;12.33;100.00
23867;BME280;12114;53.404;-1.502;2023-11-19T00:26:16;99411.47;;;12.41;100.00
23867;BME280;12114;53.404;-1.502;2023-11-19T00:29:00;99422.22;;;12.42;100.00
23867;BME280;12114;53.404;-1.502;2023-11-19T00:31:44;99423.41;;;12.41;100.00
23867;BME280;12114;53.404;-1.502;2023-11-19T00:34:30;99428.59;;;12.46;100.00
23867;BME280;12114;53.404;-1.502;2023-11-19T00:37:15;99422.63;;;12.44;100.00
23867;BME280;12114;53.404;-1.502;2023-11-19T00:39:59;99412.66;;;12.47;100.00
23867;BME280;12114;53.404;-1.502;2023-11-19T00:42:43;99423.41;;;12.45;100.00
23867;BME280;12114;53.404;-1.502;2023-11-19T00:45:28;99414.66;;;12.50;100.00
23867;BME280;12114;53.404;-1.502;2023-11-19T00:48:13;99409.47;;;12.55;100.00
23867;BME280;12114;53.404;-1.502;2023-11-19T00:50:57;99418.66;;;12.49;100.00
23867;BME280;12114;53.404;-1.502;2023-11-19T00:53:40;99402.72;;;12.49;100.00
23867;BME280;12114;53.404;-1.502;2023-11-19T00:56:24;99399.53;;;12.44;100.00
23867;BME280;12114;53.404;-1.502;2023-11-19T00:59:08;99403.09;;;12.41;100.00
23867;BME280;12114;53.404;-1.502;2023-11-19T01:01:53;99396.34;;;12.38;100.00
23867;BME280;12114;53.404;-1.502;2023-11-19T01:04:37;99401.53;;;12.33;100.00
23867;BME280;12114;53.404;-1.502;2023-11-19T01:07:20;99401.13;;;12.27;100.00
23867;BME280;12114;53.404;-1.502;2023-11-19T01:10:06;99402.31;;;12.37;100.00
23867;BME280;12114;53.404;-1.502;2023-11-19T01:12:52;99393.56;;;12.28;100.00
23867;BME280;12114;53.404;-1.502;2023-11-19T01:15:36;99391.16;;;12.26;100.00
23867;BME280;12114;53.404;-1.502;2023-11-19T01:18:20;99385.19;;;12.21;100.00
23867;BME280;12114;53.404;-1.502;2023-11-19T01:21:05;99404.28;;;12.29;100.00
23867;BME280;12114;53.404;-1.502;2023-11-19T01:23:49;99400.31;;;12.23;100.00
23867;BME280;12114;53.404;-1.502;2023-11-19T01:26:33;99400.72;;;12.22;100.00
23867;BME280;12114;53.404;-1.502;2023-11-19T01:29:17;99397.53;;;12.23;100.00
23867;BME280;12114;53.404;-1.502;2023-11-19T01:32:04;99374.44;;;12.16;100.00
23867;BME280;12114;53.404;-1.502;2023-11-19T01:34:51;99385.56;;;12.09;100.00
23867;BME280;12114;53.404;-1.502;2023-11-19T01:37:34;99389.13;;;12.05;100.00
23867;BME280;12114;53.404;-1.502;2023-11-19T01:40:20;99395.09;;;12.11;100.00
23867;BME280;12114;53.404;-1.502;2023-11-19T01:43:04;99399.06;;;12.10;100.00
23867;BME280;12114;53.404;-1.502;2023-11-19T01:45:51;99407.84;;;12.19;100.00
23867;BME280;12114;53.404;-1.502;2023-11-19T01:48:37;99412.25;;;12.24;100.00
23867;BME280;12114;53.404;-1.502;2023-11-19T01:51:24;99416.22;;;12.23;100.00
23867;BME280;12114;53.404;-1.502;2023-11-19T01:54:08;99407.06;;;12.29;100.00
23867;BME280;12114;53.404;-1.502;2023-11-19T01:56:55;99411.88;;;12.36;100.00
23867;BME280;12114;53.404;-1.502;2023-11-19T01:59:40;99401.09;;;12.34;100.00
23867;BME280;12114;53.404;-1.502;2023-11-19T02:02:25;99398.34;;;12.31;100.00
23867;BME280;12114;53.404;-1.502;2023-11-19T02:05:13;99397.13;;;12.35;100.00
23867;BME280;12114;53.404;-1.502;2023-11-19T02:07:57;99400.34;;;12.34;100.00
23867;BME280;12114;53.404;-1.502;2023-11-19T02:10:41;99392.78;;;12.41;100.00
23867;BME280;12114;53.404;-1.502;2023-11-19T02:13:26;99391.59;;;12.46;100.00
23867;BME280;12114;53.404;-1.502;2023-11-19T02:16:10;99395.16;;;12.36;100.00
23867;BME280;12114;53.404;-1.502;2023-11-19T02:18:55;99393.16;;;12.47;100.00
23867;BME280;12114;53.404;-1.502;2023-11-19T02:21:38;99401.16;;;12.48;100.00
23867;BME280;12114;53.404;-1.502;2023-11-19T02:24:28;99385.63;;;12.58;100.00
23867;BME280;12114;53.404;-1.502;2023-11-19T02:28:04;99389.19;;;12.62;100.00
23867;BME280;12114;53.404;-1.502;2023-11-19T02:30:24;99393.16;;;12.65;100.00
23867;BME280;12114;53.404;-1.502;2023-11-19T02:33:10;99385.59;;;12.61;100.00
23867;BME280;12114;53.404;-1.502;2023-11-19T02:35:54;99391.97;;;12.58;100.00
23867;BME280;12114;53.404;-1.502;2023-11-19T02:38:41;99382.84;;;12.76;100.00
23867;BME280;12114;53.404;-1.502;2023-11-19T02:41:25;99381.22;;;12.68;100.00
23867;BME280;12114;53.404;-1.502;2023-11-19T02:44:09;99384.41;;;12.63;100.00
23867;BME280;12114;53.404;-1.502;2023-11-19T02:46:53;99384.00;;;12.68;100.00
23867;BME280;12114;53.404;-1.502;2023-11-19T02:49:37;99398.34;;;12.77;100.00
23867;BME280;12114;53.404;-1.502;2023-11-19T02:52:21;99393.97;;;12.72;100.00
23867;BME280;12114;53.404;-1.502;2023-11-19T02:55:05;99387.22;;;12.73;100.00
23867;BME280;12114;53.404;-1.502;2023-11-19T02:57:53;99407.13;;;12.75;100.00
23867;BME280;12114;53.404;-1.502;2023-11-19T03:00:41;99384.81;;;12.75;100.00
23867;BME280;12114;53.404;-1.502;2023-11-19T03:06:22;99384.00;;;12.68;100.00
23867;BME280;12114;53.404;-1.502;2023-11-19T03:09:06;99366.91;;;12.76;100.00
23867;BME280;12114;53.404;-1.502;2023-11-19T03:11:54;99369.69;;;12.83;100.00
23867;BME280;12114;53.404;-1.502;2023-11-19T03:14:38;99358.53;;;12.80;100.00
23867;BME280;12114;53.404;-1.502;2023-11-19T03:17:22;99361.72;;;12.78;100.00
23867;BME280;12114;53.404;-1.502;2023-11-19T03:20:09;99357.75;;;12.79;100.00
23867;BME280;12114;53.404;-1.502;2023-11-19T03:22:54;99359.75;;;12.72;100.00
23867;BME280;12114;53.404;-1.502;2023-11-19T03:25:38;99360.53;;;12.69;100.00
23867;BME280;12114;53.404;-1.502;2023-11-19T03:28:22;99363.72;;;12.78;100.00
23867;BME280;12114;53.404;-1.502;2023-11-19T03:31:09;99355.34;;;12.74;100.00
23867;BME280;12114;53.404;-1.502;2023-11-19T03:33:53;99359.34;;;12.70;100.00
23867;BME280;12114;53.404;-1.502;2023-11-19T03:36:37;99352.56;;;12.78;100.00
23867;BME280;12114;53.404;-1.502;2023-11-19T03:39:24;99354.97;;;12.79;100.00
23867;BME280;12114;53.404;-1.502;2023-11-19T03:42:11;99363.72;;;12.71;100.00
23867;BME280;12114;53.404;-1.502;2023-11-19T03:44:57;99358.16;;;12.67;100.00
23867;BME280;12114;53.404;-1.502;2023-11-19T03:47:41;99350.22;;;12.55;100.00
23867;BME280;12114;53.404;-1.502;2023-11-19T03:50:28;99357.75;;;12.54;100.00
23867;BME280;12114;53.404;-1.502;2023-11-19T03:53:12;99366.50;;;12.49;100.00
23867;BME280;12114;53.404;-1.502;2023-11-19T03:55:57;99366.91;;;12.48;100.00
23867;BME280;12114;53.404;-1.502;2023-11-19T03:58:41;99365.69;;;12.52;100.00
23867;BME280;12114;53.404;-1.502;2023-11-19T04:01:25;99367.72;;;12.45;100.00
23867;BME280;12114;53.404;-1.502;2023-11-19T04:04:09;99375.66;;;12.50;100.00
23867;BME280;12114;53.404;-1.502;2023-11-19T04:06:53;99378.84;;;12.48;100.00
23867;BME280;12114;53.404;-1.502;2023-11-19T04:09:38;99373.28;;;12.52;100.00
23867;BME280;12114;53.404;-1.502;2023-11-19T04:12:22;99372.47;;;12.48;100.00
23867;BME280;12114;53.404;-1.502;2023-11-19T04:15:06;99378.03;;;12.41;100.00
23867;BME280;12114;53.404;-1.502;2023-11-19T04:17:50;99382.41;;;12.38;100.00
23867;BME280;12114;53.404;-1.502;2023-11-19T04:20:35;99384.81;;;12.40;100.00
23867;BME280;12114;53.404;-1.502;2023-11-19T04:23:20;99388.00;;;12.42;100.00
23867;BME280;12114;53.404;-1.502;2023-11-19T04:26:04;99379.25;;;12.36;100.00
23867;BME280;12114;53.404;-1.502;2023-11-19T04:28:48;99377.25;;;12.44;100.00
23867;BME280;12114;53.404;-1.502;2023-11-19T04:31:33;99381.63;;;12.48;100.00
23867;BME280;12114;53.404;-1.502;2023-11-19T04:34:17;99380.84;;;12.48;100.00
23867;BME280;12114;53.404;-1.502;2023-11-19T04:37:01;99380.44;;;12.53;100.00
23867;BME280;12114;53.404;-1.502;2023-11-19T04:39:49;99374.47;;;12.58;100.00
23867;BME280;12114;53.404;-1.502;2023-11-19T04:42:33;99364.91;;;12.45;100.00
23867;BME280;12114;53.404;-1.502;2023-11-19T04:45:23;99362.53;;;12.57;100.00
23867;BME280;12114;53.404;-1.502;2023-11-19T04:48:07;99357.75;;;12.44;100.00
23867;BME280;12114;53.404;-1.502;2023-11-19T04:50:52;99354.97;;;12.44;100.00
23867;BME280;12114;53.404;-1.502;2023-11-19T04:53:36;99354.16;;;12.50;100.00
23867;BME280;12114;53.404;-1.502;2023-11-19T04:56:20;99353.78;;;12.45;100.00
23867;BME280;12114;53.404;-1.502;2023-11-19T04:59:07;99363.34;;;12.37;100.00
23867;BME280;12114;53.404;-1.502;2023-11-19T05:01:51;99359.34;;;12.38;100.00
23867;BME280;12114;53.404;-1.502;2023-11-19T05:04:35;99369.28;;;12.39;100.00
23867;BME280;12114;53.404;-1.502;2023-11-19T05:07:19;99364.91;;;12.38;100.00
23867;BME280;12114;53.404;-1.502;2023-11-19T05:10:03;99368.50;;;12.42;100.00
23867;BME280;12114;53.404;-1.502;2023-11-19T05:12:48;99370.88;;;12.33;100.00
23867;BME280;12114;53.404;-1.502;2023-11-19T05:15:35;99368.91;;;12.37;100.00
23867;BME280;12114;53.404;-1.502;2023-11-19T05:18:19;99360.13;;;12.31;100.00
23867;BME280;12114;53.404;-1.502;2023-11-19T05:21:03;99367.28;;;12.25;100.00
23867;BME280;12114;53.404;-1.502;2023-11-19T05:23:47;99374.03;;;12.31;100.00
23867;BME280;12114;53.404;-1.502;2023-11-19T05:26:31;99361.31;;;12.27;100.00
23867;BME280;12114;53.404;-1.502;2023-11-19T05:29:15;99361.72;;;12.29;100.00
23867;BME280;12114;53.404;-1.502;2023-11-19T05:31:59;99356.13;;;12.25;100.00
23867;BME280;12114;53.404;-1.502;2023-11-19T05:34:43;99350.19;;;12.27;100.00
23867;BME280;12114;53.404;-1.502;2023-11-19T05:37:27;99350.19;;;12.23;100.00
23867;BME280;12114;53.404;-1.502;2023-11-19T05:40:11;99345.81;;;12.19;100.00
23867;BME280;12114;53.404;-1.502;2023-11-19T05:42:58;99336.63;;;12.11;100.00
23867;BME280;12114;53.404;-1.502;2023-11-19T05:45:42;99331.88;;;12.12;100.00
23867;BME280;12114;53.404;-1.502;2023-11-19T05:48:26;99335.47;;;12.12;100.00
23867;BME280;12114;53.404;-1.502;2023-11-19T05:51:11;99336.25;;;12.09;100.00
23867;BME280;12114;53.404;-1.502;2023-11-19T05:53:55;99340.63;;;12.17;100.00
23867;BME280;12114;53.404;-1.502;2023-11-19T05:56:41;99343.38;;;12.10;100.00
23867;BME280;12114;53.404;-1.502;2023-11-19T05:59:25;99337.81;;;12.14;100.00
23867;BME280;12114;53.404;-1.502;2023-11-19T06:02:10;99339.03;;;12.13;100.00
23867;BME280;12114;53.404;-1.502;2023-11-19T06:04:54;99350.16;;;12.09;100.00
23867;BME280;12114;53.404;-1.502;2023-11-19T06:07:38;99346.56;;;12.01;100.00
23867;BME280;12114;53.404;-1.502;2023-11-19T06:10:23;99351.75;;;12.03;100.00
23867;BME280;12114;53.404;-1.502;2023-11-19T06:13:13;99350.56;;;12.00;100.00
23867;BME280;12114;53.404;-1.502;2023-11-19T06:16:01;99356.91;;;12.01;100.00
23867;BME280;12114;53.404;-1.502;2023-11-19T06:18:47;99362.88;;;12.03;100.00
23867;BME280;12114;53.404;-1.502;2023-11-19T06:21:30;99366.47;;;12.18;100.00
23867;BME280;12114;53.404;-1.502;2023-11-19T06:24:15;99365.31;;;12.19;100.00
23867;BME280;12114;53.404;-1.502;2023-11-19T06:26:59;99372.06;;;12.18;100.00
23867;BME280;12114;53.404;-1.502;2023-11-19T06:29:46;99377.25;;;12.30;100.00
23867;BME280;12114;53.404;-1.502;2023-11-19T06:32:32;99374.03;;;12.21;100.00
23867;BME280;12114;53.404;-1.502;2023-11-19T06:35:16;99380.00;;;12.12;100.00
23867;BME280;12114;53.404;-1.502;2023-11-19T06:38:00;99377.63;;;12.14;100.00
23867;BME280;12114;53.404;-1.502;2023-11-19T06:40:45;99390.34;;;12.15;100.00
23867;BME280;12114;53.404;-1.502;2023-11-19T06:43:28;99382.38;;;12.14;100.00
23867;BME280;12114;53.404;-1.502;2023-11-19T06:46:16;99389.16;;;12.23;100.00
23867;BME280;12114;53.404;-1.502;2023-11-19T06:49:01;99395.94;;;12.26;100.00
23867;BME280;12114;53.404;-1.502;2023-11-19T06:51:45;99384.38;;;12.20;100.00
23867;BME280;12114;53.404;-1.502;2023-11-19T06:54:30;99386.00;;;12.25;100.00
23867;BME280;12114;53.404;-1.502;2023-11-19T06:57:15;99380.41;;;12.28;100.00
23867;BME280;12114;53.404;-1.502;2023-11-19T07:00:02;99375.63;;;12.25;100.00
23867;BME280;12114;53.404;-1.502;2023-11-19T07:02:46;99387.94;;;12.14;100.00
23867;BME280;12114;53.404;-1.502;2023-11-19T07:05:30;99391.94;;;12.20;100.00
23867;BME280;12114;53.404;-1.502;2023-11-19T07:08:14;99388.75;;;12.18;100.00
23867;BME280;12114;53.404;-1.502;2023-11-19T07:10:58;99388.75;;;12.18;100.00
23867;BME280;12114;53.404;-1.502;2023-11-19T07:13:42;99394.72;;;12.13;100.00
23867;BME280;12114;53.404;-1.502;2023-11-19T07:16:27;99404.66;;;12.14;100.00
23867;BME280;12114;53.404;-1.502;2023-11-19T07:19:14;99420.16;;;12.11;100.00
23867;BME280;12114;53.404;-1.502;2023-11-19T07:21:58;99414.97;;;12.02;100.00
23867;BME280;12114;53.404;-1.502;2023-11-19T07:24:43;99420.53;;;12.02;100.00
23867;BME280;12114;53.404;-1.502;2023-11-19T07:27:26;99426.88;;;11.96;100.00
23867;BME280;12114;53.404;-1.502;2023-11-19T07:30:11;99427.28;;;11.94;100.00
23867;BME280;12114;53.404;-1.502;2023-11-19T07:32:55;99432.03;;;11.90;100.00
23867;BME280;12114;53.404;-1.502;2023-11-19T07:35:39;99431.22;;;11.90;100.00
23867;BME280;12114;53.404;-1.502;2023-11-19T07:38:28;99430.44;;;11.93;100.00
23867;BME280;12114;53.404;-1.502;2023-11-19T07:41:12;99424.88;;;11.93;100.00
23867;BME280;12114;53.404;-1.502;2023-11-19T07:43:57;99408.19;;;11.93;100.00
23867;BME280;12114;53.404;-1.502;2023-11-19T07:46:41;99417.31;;;11.90;100.00
23867;BME280;12114;53.404;-1.502;2023-11-19T07:49:26;99418.88;;;11.80;100.00
23867;BME280;12114;53.404;-1.502;2023-11-19T07:52:10;99426.47;;;11.90;100.00
23867;BME280;12114;53.404;-1.502;2023-11-19T07:54:54;99418.13;;;11.90;100.00
23867;BME280;12114;53.404;-1.502;2023-11-19T07:57:39;99413.75;;;11.96;100.00
23867;BME280;12114;53.404;-1.502;2023-11-19T08:00:23;99413.78;;;12.00;100.00
23867;BME280;12114;53.404;-1.502;2023-11-19T08:03:07;99412.19;;;11.99;100.00
23867;BME280;12114;53.404;-1.502;2023-11-19T08:05:51;99424.53;;;12.09;100.00
23867;BME280;12114;53.404;-1.502;2023-11-19T08:08:35;99414.59;;;12.11;100.00
23867;BME280;12114;53.404;-1.502;2023-11-19T08:11:21;99415.41;;;12.22;100.00
23867;BME280;12114;53.404;-1.502;2023-11-19T08:14:04;99410.25;;;12.21;100.00
23867;BME280;12114;53.404;-1.502;2023-11-19T08:16:48;99412.63;;;12.22;100.00
23867;BME280;12114;53.404;-1.502;2023-11-19T08:19:32;99417.41;;;12.25;100.00
23867;BME280;12114;53.404;-1.502;2023-11-19T08:22:16;99419.78;;;12.23;100.00
23867;BME280;12114;53.404;-1.502;2023-11-19T08:25:01;99426.16;;;12.20;100.00
23867;BME280;12114;53.404;-1.502;2023-11-19T08:27:48;99421.78;;;12.23;100.00
23867;BME280;12114;53.404;-1.502;2023-11-19T08:30:32;99421.41;;;12.31;100.00
23867;BME280;12114;53.404;-1.502;2023-11-19T08:33:16;99415.84;;;12.35;100.00
23867;BME280;12114;53.404;-1.502;2023-11-19T08:36:01;99421.03;;;12.40;100.00
23867;BME280;12114;53.404;-1.502;2023-11-19T08:38:47;99407.88;;;12.40;100.00
23867;BME280;12114;53.404;-1.502;2023-11-19T08:41:32;99414.25;;;12.44;100.00
23867;BME280;12114;53.404;-1.502;2023-11-19T08:44:17;99413.47;;;12.51;100.00
23867;BME280;12114;53.404;-1.502;2023-11-19T08:47:03;99400.34;;;12.48;100.00
23867;BME280;12114;53.404;-1.502;2023-11-19T08:49:50;99409.50;;;12.59;100.00
23867;BME280;12114;53.404;-1.502;2023-11-19T08:52:39;99413.91;;;12.67;100.00
23867;BME280;12114;53.404;-1.502;2023-11-19T08:55:23;99407.50;;;12.63;100.00
23867;BME280;12114;53.404;-1.502;2023-11-19T08:58:07;99400.75;;;12.64;100.00
23867;BME280;12114;53.404;-1.502;2023-11-19T09:00:51;99407.91;;;12.65;100.00
23867;BME280;12114;53.404;-1.502;2023-11-19T09:03:35;99407.50;;;12.63;100.00
23867;BME280;12114;53.404;-1.502;2023-11-19T09:06:26;99414.69;;;12.60;100.00
23867;BME280;12114;53.404;-1.502;2023-11-19T09:09:11;99406.34;;;12.64;100.00
23867;BME280;12114;53.404;-1.502;2023-11-19T09:11:55;99410.31;;;12.67;100.00
23867;BME280;12114;53.404;-1.502;2023-11-19T09:14:39;99405.13;;;12.69;100.00
23867;BME280;12114;53.404;-1.502;2023-11-19T09:17:23;99404.31;;;12.68;100.00
23867;BME280;12114;53.404;-1.502;2023-11-19T09:20:08;99406.72;;;12.66;100.00
23867;BME280;12114;53.404;-1.502;2023-11-19T09:22:52;99407.09;;;12.68;100.00
23867;BME280;12114;53.404;-1.502;2023-11-19T09:25:36;99404.34;;;12.61;100.00
23867;BME280;12114;53.404;-1.502;2023-11-19T09:28:20;99401.13;;;12.63;100.00
23867;BME280;12114;53.404;-1.502;2023-11-19T09:31:13;99407.50;;;12.74;100.00
23867;BME280;12114;53.404;-1.502;2023-11-19T09:33:57;99401.94;;;12.74;100.00
23867;BME280;12114;53.404;-1.502;2023-11-19T09:36:41;99395.56;;;12.70;100.00
23867;BME280;12114;53.404;-1.502;2023-11-19T09:39:27;99394.38;;;12.78;100.00
23867;BME280;12114;53.404;-1.502;2023-11-19T09:42:14;99401.16;;;12.91;100.00
23867;BME280;12114;53.404;-1.502;2023-11-19T09:45:00;99399.53;;;12.86;100.00
23867;BME280;12114;53.404;-1.502;2023-11-19T09:47:47;99405.91;;;12.97;100.00
23867;BME280;12114;53.404;-1.502;2023-11-19T09:50:31;99396.75;;;13.04;100.00
23867;BME280;12114;53.404;-1.502;2023-11-19T09:53:15;99396.75;;;13.11;100.00
23867;BME280;12114;53.404;-1.502;2023-11-19T09:56:01;99390.38;;;13.21;100.00
23867;BME280;12114;53.404;-1.502;2023-11-19T09:58:46;99386.78;;;13.28;100.00
23867;BME280;12114;53.404;-1.502;2023-11-19T10:01:30;99384.72;;;13.46;100.00
23867;BME280;12114;53.404;-1.502;2023-11-19T10:04:16;99382.66;;;13.64;100.00
23867;BME280;12114;53.404;-1.502;2023-11-19T10:07:01;99393.03;;;13.56;100.00
23867;BME280;12114;53.404;-1.502;2023-11-19T10:09:46;99378.78;;;13.33;100.00
23867;BME280;12114;53.404;-1.502;2023-11-19T10:12:31;99382.81;;;13.22;100.00
23867;BME280;12114;53.404;-1.502;2023-11-19T10:15:25;99395.16;;;13.21;100.00
23867;BME280;12114;53.404;-1.502;2023-11-19T10:18:10;99396.34;;;13.05;100.00
23867;BME280;12114;53.404;-1.502;2023-11-19T10:20:54;99403.94;;;13.12;100.00
23867;BME280;12114;53.404;-1.502;2023-11-19T10:23:55;99409.91;;;13.18;100.00
23867;BME280;12114;53.404;-1.502;2023-11-19T10:26:41;99414.66;;;12.99;100.00
23867;BME280;12114;53.404;-1.502;2023-11-19T10:29:26;99415.47;;;12.96;100.00
23867;BME280;12114;53.404;-1.502;2023-11-19T10:32:12;99416.25;;;12.86;100.00
23867;BME280;12114;53.404;-1.502;2023-11-19T10:35:04;99423.03;;;12.92;100.00
23867;BME280;12114;53.404;-1.502;2023-11-19T10:37:50;99423.44;;;12.84;100.00
23867;BME280;12114;53.404;-1.502;2023-11-19T10:40:38;99420.25;;;12.89;100.00
23867;BME280;12114;53.404;-1.502;2023-11-19T10:43:24;99416.66;;;12.81;100.00
23867;BME280;12114;53.404;-1.502;2023-11-19T10:46:12;99422.25;;;12.88;100.00
23867;BME280;12114;53.404;-1.502;2023-11-19T10:48:56;99425.44;;;12.94;100.00
23867;BME280;12114;53.404;-1.502;2023-11-19T10:51:45;99424.63;;;12.97;100.00
23867;BME280;12114;53.404;-1.502;2023-11-19T10:54:32;99425.06;;;12.92;100.00
23867;BME280;12114;53.404;-1.502;2023-11-19T10:57:21;99416.28;;;12.97;100.00
23867;BME280;12114;53.404;-1.502;2023-11-19T11:00:09;99413.88;;;12.99;100.00
23867;BME280;12114;53.404;-1.502;2023-11-19T11:03:05;99418.66;;;13.05;100.00
23867;BME280;12114;53.404;-1.502;2023-11-19T11:05:54;99421.06;;;13.00;100.00
23867;BME280;12114;53.404;-1.502;2023-11-19T11:08:39;99414.28;;;13.01;100.00
23867;BME280;12114;53.404;-1.502;2023-11-19T11:11:23;99418.25;;;13.07;100.00
23867;BME280;12114;53.404;-1.502;2023-11-19T11:14:11;99425.06;;;13.09;100.00
23867;BME280;12114;53.404;-1.502;2023-11-19T11:16:56;99425.03;;;13.02;100.00
23867;BME280;12114;53.404;-1.502;2023-11-19T11:19:42;99418.66;;;13.02;100.00
23867;BME280;12114;53.404;-1.502;2023-11-19T11:22:42;99429.81;;;13.05;100.00
23867;BME280;12114;53.404;-1.502;2023-11-19T11:37:44;99416.25;;;12.83;100.00
23867;BME280;12114;53.404;-1.502;2023-11-19T11:40:31;99402.72;;;12.78;100.00
23867;BME280;12114;53.404;-1.502;2023-11-19T11:43:50;99409.88;;;12.86;100.00
23867;BME280;12114;53.404;-1.502;2023-11-19T11:49:25;99395.56;;;12.80;100.00
23867;BME280;12114;53.404;-1.502;2023-11-19T11:52:08;99393.56;;;12.81;100.00
23867;BME280;12114;53.404;-1.502;2023-11-19T11:55:04;99409.50;;;12.91;100.00
23867;BME280;12114;53.404;-1.502;2023-11-19T11:57:48;99393.16;;;12.86;100.00
23867;BME280;12114;53.404;-1.502;2023-11-19T12:00:33;99391.19;;;12.93;100.00
23867;BME280;12114;53.404;-1.502;2023-11-19T12:03:21;99393.16;;;13.00;100.00
23867;BME280;12114;53.404;-1.502;2023-11-19T12:06:06;99385.59;;;13.04;100.00
23867;BME280;12114;53.404;-1.502;2023-11-19T12:08:52;99388.34;;;13.07;100.00
23867;BME280;12114;53.404;-1.502;2023-11-19T12:11:36;99392.78;;;13.08;100.00
23867;BME280;12114;53.404;-1.502;2023-11-19T12:20:28;99398.34;;;13.16;100.00
23867;BME280;12114;53.404;-1.502;2023-11-19T12:23:15;99394.75;;;13.22;100.00
23867;BME280;12114;53.404;-1.502;2023-11-19T12:25:59;99379.59;;;13.23;100.00
23867;BME280;12114;53.404;-1.502;2023-11-19T12:28:57;99384.34;;;13.37;100.00
23867;BME280;12114;53.404;-1.502;2023-11-19T12:31:44;99387.16;;;13.40;100.00
23867;BME280;12114;53.404;-1.502;2023-11-19T12:34:28;99376.75;;;13.44;100.00
23867;BME280;12114;53.404;-1.502;2023-11-19T12:37:12;99387.47;;;13.53;100.00
23867;BME280;12114;53.404;-1.502;2023-11-19T12:39:59;99387.47;;;13.53;100.00
23867;BME280;12114;53.404;-1.502;2023-11-19T12:42:48;99388.69;;;13.55;100.00
23867;BME280;12114;53.404;-1.502;2023-11-19T12:45:41;99381.88;;;13.56;100.00
23867;BME280;12114;53.404;-1.502;2023-11-19T12:48:25;99382.31;;;13.51;100.00
23867;BME280;12114;53.404;-1.502;2023-11-19T12:51:09;99375.50;;;13.56;100.00
23867;BME280;12114;53.404;-1.502;2023-11-19T12:53:53;99381.50;;;13.58;100.00
23867;BME280;12114;53.404;-1.502;2023-11-19T12:56:52;99383.03;;;13.77;100.00
23867;BME280;12114;53.404;-1.502;2023-11-19T12:59:37;99379.38;;;13.83;100.00
23867;BME280;12114;53.404;-1.502;2023-11-19T13:02:21;99381.34;;;13.86;100.00
23867;BME280;12114;53.404;-1.502;2023-11-19T13:05:24;99377.78;;;13.86;100.00
23867;BME280;12114;53.404;-1.502;2023-11-19T13:08:13;99370.63;;;13.78;100.00
23867;BME280;12114;53.404;-1.502;2023-11-19T13:11:00;99372.25;;;13.75;100.00
23867;BME280;12114;53.404;-1.502;2023-11-19T13:13:57;99365.47;;;13.73;100.00
23867;BME280;12114;53.404;-1.502;2023-11-19T13:16:42;99363.50;;;13.66;100.00
23867;BME280;12114;53.404;-1.502;2023-11-19T13:19:26;99351.97;;;13.64;100.00
23867;BME280;12114;53.404;-1.502;2023-11-19T13:22:10;99361.09;;;13.72;100.00
23867;BME280;12114;53.404;-1.502;2023-11-19T13:24:54;99365.13;;;13.63;100.00
23867;BME280;12114;53.404;-1.502;2023-11-19T13:27:38;99371.06;;;13.69;100.00
23867;BME280;12114;53.404;-1.502;2023-11-19T13:30:23;99368.63;;;13.78;100.00
23867;BME280;12114;53.404;-1.502;2023-11-19T13:33:07;99367.44;;;13.79;100.00
23867;BME280;12114;53.404;-1.502;2023-11-19T13:35:51;99377.34;;;13.91;100.00
23867;BME280;12114;53.404;-1.502;2023-11-19T13:38:38;99376.09;;;13.99;100.00
23867;BME280;12114;53.404;-1.502;2023-11-19T13:41:25;99374.09;;;13.99;100.00
23867;BME280;12114;53.404;-1.502;2023-11-19T13:44:10;99377.31;;;13.98;100.00
23867;BME280;12114;53.404;-1.502;2023-11-19T13:46:53;99371.28;;;14.10;100.00
23867;BME280;12114;53.404;-1.502;2023-11-19T13:49:37;99362.47;;;14.08;100.00
23867;BME280;12114;53.404;-1.502;2023-11-19T13:52:21;99371.22;;;14.13;100.00
23867;BME280;12114;53.404;-1.502;2023-11-19T13:55:09;99370.41;;;14.16;100.00
23867;BME280;12114;53.404;-1.502;2023-11-19T13:57:54;99370.81;;;14.18;100.00
23867;BME280;12114;53.404;-1.502;2023-11-19T14:00:38;99372.81;;;14.14;100.00
23867;BME280;12114;53.404;-1.502;2023-11-19T14:03:22;99369.69;;;14.05;100.00
23867;BME280;12114;53.404;-1.502;2023-11-19T14:06:06;99370.03;;;14.11;100.00
23867;BME280;12114;53.404;-1.502;2023-11-19T14:08:52;99375.66;;;14.07;100.00
23867;BME280;12114;53.404;-1.502;2023-11-19T14:11:36;99370.06;;;14.07;100.00
23867;BME280;12114;53.404;-1.502;2023-11-19T14:14:20;99363.72;;;14.03;100.00
23867;BME280;12114;53.404;-1.502;2023-11-19T14:17:07;99364.91;;;14.06;100.00
23867;BME280;12114;53.404;-1.502;2023-11-19T14:19:54;99356.19;;;13.97;100.00
23867;BME280;12114;53.404;-1.502;2023-11-19T14:22:42;99358.63;;;13.84;100.00
23867;BME280;12114;53.404;-1.502;2023-11-19T14:25:26;99355.09;;;13.77;100.00
23867;BME280;12114;53.404;-1.502;2023-11-19T14:28:10;99351.16;;;13.67;100.00
23867;BME280;12114;53.404;-1.502;2023-11-19T14:30:54;99349.19;;;13.64;100.00
23867;BME280;12114;53.404;-1.502;2023-11-19T14:33:40;99359.97;;;13.58;100.00
23867;BME280;12114;53.404;-1.502;2023-11-19T14:36:26;99356.78;;;13.56;100.00
23867;BME280;12114;53.404;-1.502;2023-11-19T14:39:10;99359.19;;;13.51;100.00